sensor_id;sensor_type;location;lat;lon;timestamp;P1;durP1;ratioP1;P2;durP2;ratioP2
44572;SDS011;31762;45.420;10.072;2022-08-19T00:03:24;4.70;;;2.60;;
44572;SDS011;31762;45.420;10.072;2022-08-19T00:08:26;5.05;;;3.15;;
44572;SDS011;31762;45.420;10.072;2022-08-19T00:13:28;4.97;;;4.10;;
44572;SDS011;31762;45.420;10.072;2022-08-19T00:18:29;9.05;;;3.90;;
44572;SDS011;31762;45.420;10.072;2022-08-19T00:23:33;4.47;;;3.13;;
44572;SDS011;31762;45.420;10.072;2022-08-19T00:28:34;7.57;;;3.47;;
44572;SDS011;31762;45.420;10.072;2022-08-19T00:33:37;4.73;;;2.83;;
44572;SDS011;31762;45.420;10.072;2022-08-19T00:38:39;5.72;;;3.25;;
44572;SDS011;31762;45.420;10.072;2022-08-19T00:43:41;7.80;;;3.75;;
44572;SDS011;31762;45.420;10.072;2022-08-19T00:48:42;5.30;;;2.90;;
44572;SDS011;31762;45.420;10.072;2022-08-19T00:53:44;7.73;;;2.93;;
44572;SDS011;31762;45.420;10.072;2022-08-19T00:58:47;3.92;;;2.70;;
44572;SDS011;31762;45.420;10.072;2022-08-19T01:03:48;4.70;;;2.65;;
44572;SDS011;31762;45.420;10.072;2022-08-19T01:08:59;5.85;;;3.28;;
44572;SDS011;31762;45.420;10.072;2022-08-19T01:14:01;4.13;;;2.83;;
44572;SDS011;31762;45.420;10.072;2022-08-19T01:19:04;7.57;;;3.20;;
44572;SDS011;31762;45.420;10.072;2022-08-19T01:24:16;4.25;;;2.88;;
44572;SDS011;31762;45.420;10.072;2022-08-19T01:29:18;7.03;;;2.88;;
44572;SDS011;31762;45.420;10.072;2022-08-19T01:34:21;7.13;;;2.58;;
44572;SDS011;31762;45.420;10.072;2022-08-19T01:39:24;3.65;;;2.70;;
44572;SDS011;31762;45.420;10.072;2022-08-19T01:44:25;5.43;;;2.90;;
44572;SDS011;31762;45.420;10.072;2022-08-19T01:49:27;4.90;;;2.77;;
44572;SDS011;31762;45.420;10.072;2022-08-19T01:54:29;5.60;;;2.97;;
44572;SDS011;31762;45.420;10.072;2022-08-19T01:59:31;3.90;;;3.15;;
44572;SDS011;31762;45.420;10.072;2022-08-19T02:04:34;3.63;;;3.17;;
44572;SDS011;31762;45.420;10.072;2022-08-19T02:09:37;3.40;;;2.30;;
44572;SDS011;31762;45.420;10.072;2022-08-19T02:14:38;5.80;;;2.80;;
44572;SDS011;31762;45.420;10.072;2022-08-19T02:19:40;5.18;;;2.88;;
44572;SDS011;31762;45.420;10.072;2022-08-19T02:24:42;6.37;;;2.90;;
44572;SDS011;31762;45.420;10.072;2022-08-19T02:29:45;4.43;;;2.63;;
44572;SDS011;31762;45.420;10.072;2022-08-19T02:34:48;4.70;;;2.70;;
44572;SDS011;31762;45.420;10.072;2022-08-19T02:39:50;4.20;;;3.20;;
44572;SDS011;31762;45.420;10.072;2022-08-19T02:44:51;4.00;;;2.67;;
44572;SDS011;31762;45.420;10.072;2022-08-19T02:49:54;5.13;;;2.70;;
44572;SDS011;31762;45.420;10.072;2022-08-19T02:54:56;3.17;;;2.63;;
44572;SDS011;31762;45.420;10.072;2022-08-19T02:59:58;5.60;;;2.80;;
44572;SDS011;31762;45.420;10.072;2022-08-19T03:05:01;3.35;;;2.35;;
44572;SDS011;31762;45.420;10.072;2022-08-19T03:10:04;4.60;;;2.67;;
44572;SDS011;31762;45.420;10.072;2022-08-19T03:15:07;3.97;;;3.00;;
44572;SDS011;31762;45.420;10.072;2022-08-19T03:20:10;3.42;;;2.80;;
44572;SDS011;31762;45.420;10.072;2022-08-19T03:25:11;3.37;;;2.47;;
44572;SDS011;31762;45.420;10.072;2022-08-19T03:30:13;3.93;;;2.53;;
44572;SDS011;31762;45.420;10.072;2022-08-19T03:35:23;2.83;;;2.30;;
44572;SDS011;31762;45.420;10.072;2022-08-19T03:40:25;3.30;;;1.90;;
44572;SDS011;31762;45.420;10.072;2022-08-19T03:45:27;4.68;;;2.67;;
44572;SDS011;31762;45.420;10.072;2022-08-19T03:50:29;3.15;;;2.65;;
44572;SDS011;31762;45.420;10.072;2022-08-19T03:55:31;5.05;;;2.58;;
44572;SDS011;31762;45.420;10.072;2022-08-19T04:00:32;4.70;;;2.40;;
44572;SDS011;31762;45.420;10.072;2022-08-19T04:05:34;4.43;;;2.90;;
44572;SDS011;31762;45.420;10.072;2022-08-19T04:10:36;4.63;;;2.95;;
44572;SDS011;31762;45.420;10.072;2022-08-19T04:15:40;4.50;;;2.88;;
44572;SDS011;31762;45.420;10.072;2022-08-19T04:20:43;4.40;;;2.45;;
44572;SDS011;31762;45.420;10.072;2022-08-19T04:25:46;4.07;;;2.85;;
44572;SDS011;31762;45.420;10.072;2022-08-19T04:30:51;4.40;;;2.50;;
44572;SDS011;31762;45.420;10.072;2022-08-19T04:35:54;5.15;;;2.25;;
44572;SDS011;31762;45.420;10.072;2022-08-19T04:40:56;5.07;;;2.50;;
44572;SDS011;31762;45.420;10.072;2022-08-19T04:45:58;4.53;;;2.70;;
44572;SDS011;31762;45.420;10.072;2022-08-19T04:51:07;4.18;;;2.63;;
44572;SDS011;31762;45.420;10.072;2022-08-19T04:56:12;2.65;;;1.67;;
44572;SDS011;31762;45.420;10.072;2022-08-19T05:01:19;0.60;;;0.50;;
44572;SDS011;31762;45.420;10.072;2022-08-19T05:06:24;0.28;;;0.10;;
44572;SDS011;31762;45.420;10.072;2022-08-19T05:11:27;0.90;;;0.07;;
44572;SDS011;31762;45.420;10.072;2022-08-19T05:16:31;0.22;;;0.20;;
44572;SDS011;31762;45.420;10.072;2022-08-19T05:21:33;0.40;;;0.30;;
44572;SDS011;31762;45.420;10.072;2022-08-19T05:26:36;0.15;;;0.10;;
44572;SDS011;31762;45.420;10.072;2022-08-19T05:31:42;1.03;;;0.63;;
44572;SDS011;31762;45.420;10.072;2022-08-19T05:36:45;0.65;;;0.10;;
44572;SDS011;31762;45.420;10.072;2022-08-19T05:41:49;1.70;;;0.17;;
44572;SDS011;31762;45.420;10.072;2022-08-19T05:46:59;1.65;;;0.52;;
44572;SDS011;31762;45.420;10.072;2022-08-19T05:52:06;1.07;;;0.20;;
44572;SDS011;31762;45.420;10.072;2022-08-19T05:57:10;1.65;;;0.32;;
44572;SDS011;31762;45.420;10.072;2022-08-19T06:02:13;1.58;;;0.30;;
44572;SDS011;31762;45.420;10.072;2022-08-19T06:07:15;2.15;;;0.43;;
44572;SDS011;31762;45.420;10.072;2022-08-19T06:12:17;0.70;;;0.50;;
44572;SDS011;31762;45.420;10.072;2022-08-19T06:17:19;0.45;;;0.25;;
44572;SDS011;31762;45.420;10.072;2022-08-19T06:22:21;2.10;;;0.60;;
44572;SDS011;31762;45.420;10.072;2022-08-19T06:27:23;1.90;;;0.40;;
44572;SDS011;31762;45.420;10.072;2022-08-19T06:32:25;0.88;;;0.30;;
44572;SDS011;31762;45.420;10.072;2022-08-19T06:37:26;0.70;;;0.70;;
44572;SDS011;31762;45.420;10.072;2022-08-19T06:42:28;0.40;;;0.30;;
44572;SDS011;31762;45.420;10.072;2022-08-19T06:47:30;1.20;;;0.60;;
44572;SDS011;31762;45.420;10.072;2022-08-19T06:52:34;2.83;;;0.43;;
44572;SDS011;31762;45.420;10.072;2022-08-19T06:57:38;0.75;;;0.52;;
44572;SDS011;31762;45.420;10.072;2022-08-19T07:02:41;0.50;;;0.20;;
44572;SDS011;31762;45.420;10.072;2022-08-19T07:07:55;0.60;;;0.30;;
44572;SDS011;31762;45.420;10.072;2022-08-19T07:13:03;1.23;;;0.63;;
44572;SDS011;31762;45.420;10.072;2022-08-19T07:18:04;1.80;;;0.47;;
44572;SDS011;31762;45.420;10.072;2022-08-19T07:23:06;3.57;;;1.20;;
44572;SDS011;31762;45.420;10.072;2022-08-19T07:28:08;0.80;;;0.30;;
44572;SDS011;31762;45.420;10.072;2022-08-19T07:33:24;2.30;;;0.70;;
44572;SDS011;31762;45.420;10.072;2022-08-19T07:38:28;1.00;;;0.35;;
44572;SDS011;31762;45.420;10.072;2022-08-19T07:43:29;0.73;;;0.17;;
44572;SDS011;31762;45.420;10.072;2022-08-19T07:48:35;0.50;;;0.30;;
44572;SDS011;31762;45.420;10.072;2022-08-19T07:53:37;1.00;;;0.50;;
44572;SDS011;31762;45.420;10.072;2022-08-19T07:58:41;1.80;;;0.50;;
44572;SDS011;31762;45.420;10.072;2022-08-19T08:03:44;1.60;;;0.35;;
44572;SDS011;31762;45.420;10.072;2022-08-19T08:08:47;0.82;;;0.40;;
44572;SDS011;31762;45.420;10.072;2022-08-19T08:13:49;1.30;;;0.70;;
44572;SDS011;31762;45.420;10.072;2022-08-19T08:19:05;0.80;;;0.40;;
44572;SDS011;31762;45.420;10.072;2022-08-19T08:24:29;1.65;;;0.40;;
44572;SDS011;31762;45.420;10.072;2022-08-19T08:29:31;1.10;;;0.63;;
44572;SDS011;31762;45.420;10.072;2022-08-19T08:34:35;1.87;;;0.50;;
44572;SDS011;31762;45.420;10.072;2022-08-19T08:39:37;0.55;;;0.35;;
44572;SDS011;31762;45.420;10.072;2022-08-19T08:49:49;0.20;;;0.10;;
44572;SDS011;31762;45.420;10.072;2022-08-19T08:54:57;0.30;;;0.20;;
44572;SDS011;31762;45.420;10.072;2022-08-19T09:00:04;0.95;;;0.50;;
44572;SDS011;31762;45.420;10.072;2022-08-19T09:05:16;0.80;;;0.40;;
44572;SDS011;31762;45.420;10.072;2022-08-19T09:10:33;0.28;;;0.20;;
44572;SDS011;31762;45.420;10.072;2022-08-19T09:15:47;0.50;;;0.20;;
44572;SDS011;31762;45.420;10.072;2022-08-19T09:20:55;0.30;;;0.20;;
44572;SDS011;31762;45.420;10.072;2022-08-19T09:25:57;0.60;;;0.10;;
44572;SDS011;31762;45.420;10.072;2022-08-19T09:30:59;0.00;;;0.00;;
44572;SDS011;31762;45.420;10.072;2022-08-19T09:36:02;0.10;;;0.00;;
44572;SDS011;31762;45.420;10.072;2022-08-19T09:41:10;0.70;;;0.10;;
44572;SDS011;31762;45.420;10.072;2022-08-19T09:46:14;0.63;;;0.10;;
44572;SDS011;31762;45.420;10.072;2022-08-19T09:51:22;0.17;;;0.10;;
44572;SDS011;31762;45.420;10.072;2022-08-19T09:56:25;0.15;;;0.05;;
44572;SDS011;31762;45.420;10.072;2022-08-19T10:01:28;0.22;;;0.20;;
44572;SDS011;31762;45.420;10.072;2022-08-19T10:06:31;0.50;;;0.20;;
44572;SDS011;31762;45.420;10.072;2022-08-19T10:11:46;1.63;;;0.10;;
44572;SDS011;31762;45.420;10.072;2022-08-19T10:16:55;0.57;;;0.43;;
44572;SDS011;31762;45.420;10.072;2022-08-19T10:22:04;0.22;;;0.10;;
44572;SDS011;31762;45.420;10.072;2022-08-19T10:27:12;0.13;;;0.10;;
44572;SDS011;31762;45.420;10.072;2022-08-19T10:32:16;0.13;;;0.03;;
44572;SDS011;31762;45.420;10.072;2022-08-19T10:37:18;0.30;;;0.10;;
44572;SDS011;31762;45.420;10.072;2022-08-19T10:42:28;0.40;;;0.20;;
44572;SDS011;31762;45.420;10.072;2022-08-19T10:47:30;0.13;;;0.05;;
44572;SDS011;31762;45.420;10.072;2022-08-19T10:52:33;0.50;;;0.40;;
44572;SDS011;31762;45.420;10.072;2022-08-19T10:57:39;0.80;;;0.45;;
44572;SDS011;31762;45.420;10.072;2022-08-19T11:03:01;1.50;;;0.43;;
44572;SDS011;31762;45.420;10.072;2022-08-19T11:08:02;2.13;;;0.40;;
44572;SDS011;31762;45.420;10.072;2022-08-19T11:13:23;0.40;;;0.10;;
44572;SDS011;31762;45.420;10.072;2022-08-19T11:18:26;0.10;;;0.10;;
44572;SDS011;31762;45.420;10.072;2022-08-19T11:23:28;1.35;;;0.13;;
44572;SDS011;31762;45.420;10.072;2022-08-19T11:28:30;0.50;;;0.20;;
44572;SDS011;31762;45.420;10.072;2022-08-19T11:33:31;0.30;;;0.10;;
44572;SDS011;31762;45.420;10.072;2022-08-19T11:38:33;1.20;;;0.40;;
44572;SDS011;31762;45.420;10.072;2022-08-19T11:43:36;2.22;;;0.20;;
44572;SDS011;31762;45.420;10.072;2022-08-19T11:48:38;1.27;;;0.43;;
44572;SDS011;31762;45.420;10.072;2022-08-19T11:53:40;1.05;;;0.20;;
44572;SDS011;31762;45.420;10.072;2022-08-19T11:58:43;0.63;;;0.22;;
44572;SDS011;31762;45.420;10.072;2022-08-19T12:03:46;0.50;;;0.43;;
44572;SDS011;31762;45.420;10.072;2022-08-19T12:08:49;0.50;;;0.10;;
44572;SDS011;31762;45.420;10.072;2022-08-19T12:13:51;0.13;;;0.10;;
44572;SDS011;31762;45.420;10.072;2022-08-19T12:18:54;0.30;;;0.10;;
44572;SDS011;31762;45.420;10.072;2022-08-19T12:23:57;0.50;;;0.00;;
44572;SDS011;31762;45.420;10.072;2022-08-19T12:29:00;1.70;;;0.38;;
44572;SDS011;31762;45.420;10.072;2022-08-19T12:34:01;0.45;;;0.03;;
44572;SDS011;31762;45.420;10.072;2022-08-19T12:39:03;0.50;;;0.20;;
44572;SDS011;31762;45.420;10.072;2022-08-19T12:44:05;0.30;;;0.10;;
44572;SDS011;31762;45.420;10.072;2022-08-19T12:49:08;0.30;;;0.20;;
44572;SDS011;31762;45.420;10.072;2022-08-19T12:54:30;0.85;;;0.60;;
44572;SDS011;31762;45.420;10.072;2022-08-19T12:59:31;0.50;;;0.20;;
44572;SDS011;31762;45.420;10.072;2022-08-19T13:04:34;0.57;;;0.17;;
44572;SDS011;31762;45.420;10.072;2022-08-19T13:09:36;1.07;;;0.57;;
44572;SDS011;31762;45.420;10.072;2022-08-19T13:14:38;1.40;;;0.10;;
44572;SDS011;31762;45.420;10.072;2022-08-19T13:19:41;0.43;;;0.20;;
44572;SDS011;31762;45.420;10.072;2022-08-19T13:24:42;1.00;;;0.50;;
44572;SDS011;31762;45.420;10.072;2022-08-19T13:29:47;0.30;;;0.30;;
44572;SDS011;31762;45.420;10.072;2022-08-19T13:34:49;1.40;;;0.50;;
44572;SDS011;31762;45.420;10.072;2022-08-19T13:39:51;0.90;;;0.40;;
44572;SDS011;31762;45.420;10.072;2022-08-19T13:44:53;1.50;;;0.43;;
44572;SDS011;31762;45.420;10.072;2022-08-19T13:49:55;0.95;;;0.57;;
44572;SDS011;31762;45.420;10.072;2022-08-19T13:54:57;1.20;;;0.60;;
44572;SDS011;31762;45.420;10.072;2022-08-19T13:59:58;0.90;;;0.60;;
44572;SDS011;31762;45.420;10.072;2022-08-19T14:05:00;1.55;;;0.70;;
44572;SDS011;31762;45.420;10.072;2022-08-19T14:10:05;0.68;;;0.35;;
44572;SDS011;31762;45.420;10.072;2022-08-19T14:15:10;1.67;;;0.67;;
44572;SDS011;31762;45.420;10.072;2022-08-19T14:20:13;2.00;;;0.40;;
44572;SDS011;31762;45.420;10.072;2022-08-19T14:25:19;0.80;;;0.60;;
44572;SDS011;31762;45.420;10.072;2022-08-19T14:30:26;1.60;;;0.87;;
44572;SDS011;31762;45.420;10.072;2022-08-19T14:35:30;1.23;;;0.63;;
44572;SDS011;31762;45.420;10.072;2022-08-19T14:40:33;1.30;;;0.90;;
44572;SDS011;31762;45.420;10.072;2022-08-19T14:45:36;1.73;;;1.00;;
44572;SDS011;31762;45.420;10.072;2022-08-19T14:50:41;1.23;;;0.73;;
44572;SDS011;31762;45.420;10.072;2022-08-19T14:55:43;2.03;;;1.00;;
44572;SDS011;31762;45.420;10.072;2022-08-19T15:00:46;2.63;;;0.83;;
44572;SDS011;31762;45.420;10.072;2022-08-19T15:05:49;0.77;;;0.60;;
44572;SDS011;31762;45.420;10.072;2022-08-19T15:10:51;1.17;;;1.00;;
44572;SDS011;31762;45.420;10.072;2022-08-19T15:15:53;1.58;;;0.80;;
44572;SDS011;31762;45.420;10.072;2022-08-19T15:20:55;0.85;;;0.70;;
44572;SDS011;31762;45.420;10.072;2022-08-19T15:25:57;1.20;;;0.57;;
44572;SDS011;31762;45.420;10.072;2022-08-19T15:30:58;1.58;;;0.80;;
44572;SDS011;31762;45.420;10.072;2022-08-19T15:36:00;1.60;;;0.60;;
44572;SDS011;31762;45.420;10.072;2022-08-19T15:41:03;0.90;;;0.50;;
44572;SDS011;31762;45.420;10.072;2022-08-19T15:46:05;1.67;;;0.30;;
44572;SDS011;31762;45.420;10.072;2022-08-19T15:51:07;1.08;;;0.40;;
44572;SDS011;31762;45.420;10.072;2022-08-19T15:56:10;1.77;;;0.50;;
44572;SDS011;31762;45.420;10.072;2022-08-19T16:01:12;1.60;;;0.80;;
44572;SDS011;31762;45.420;10.072;2022-08-19T16:06:14;1.20;;;0.60;;
44572;SDS011;31762;45.420;10.072;2022-08-19T16:11:17;1.77;;;0.88;;
44572;SDS011;31762;45.420;10.072;2022-08-19T16:16:21;1.00;;;0.67;;
44572;SDS011;31762;45.420;10.072;2022-08-19T16:21:33;2.15;;;1.00;;
44572;SDS011;31762;45.420;10.072;2022-08-19T16:26:37;2.35;;;0.70;;
44572;SDS011;31762;45.420;10.072;2022-08-19T16:31:42;1.50;;;1.00;;
44572;SDS011;31762;45.420;10.072;2022-08-19T16:36:45;1.45;;;0.63;;
44572;SDS011;31762;45.420;10.072;2022-08-19T16:41:47;2.38;;;0.73;;
44572;SDS011;31762;45.420;10.072;2022-08-19T16:46:49;2.00;;;1.20;;
44572;SDS011;31762;45.420;10.072;2022-08-19T16:51:59;1.00;;;0.57;;
44572;SDS011;31762;45.420;10.072;2022-08-19T16:57:00;2.03;;;0.77;;
44572;SDS011;31762;45.420;10.072;2022-08-19T17:02:02;1.07;;;0.53;;
44572;SDS011;31762;45.420;10.072;2022-08-19T17:07:04;1.10;;;0.70;;
44572;SDS011;31762;45.420;10.072;2022-08-19T17:12:06;2.30;;;0.77;;
44572;SDS011;31762;45.420;10.072;2022-08-19T17:17:08;1.63;;;0.50;;
44572;SDS011;31762;45.420;10.072;2022-08-19T17:22:10;1.55;;;0.60;;
44572;SDS011;31762;45.420;10.072;2022-08-19T17:27:12;1.30;;;0.60;;
44572;SDS011;31762;45.420;10.072;2022-08-19T17:32:13;1.63;;;0.40;;
44572;SDS011;31762;45.420;10.072;2022-08-19T17:37:15;3.58;;;0.80;;
44572;SDS011;31762;45.420;10.072;2022-08-19T17:42:17;1.17;;;0.70;;
44572;SDS011;31762;45.420;10.072;2022-08-19T17:47:18;1.42;;;0.60;;
44572;SDS011;31762;45.420;10.072;2022-08-19T17:52:20;3.47;;;1.00;;
44572;SDS011;31762;45.420;10.072;2022-08-19T17:57:22;3.30;;;0.77;;
44572;SDS011;31762;45.420;10.072;2022-08-19T18:02:24;1.60;;;0.50;;
44572;SDS011;31762;45.420;10.072;2022-08-19T18:07:26;1.42;;;0.63;;
44572;SDS011;31762;45.420;10.072;2022-08-19T18:12:27;1.10;;;0.50;;
44572;SDS011;31762;45.420;10.072;2022-08-19T18:17:29;2.35;;;0.68;;
44572;SDS011;31762;45.420;10.072;2022-08-19T18:22:33;1.45;;;0.80;;
44572;SDS011;31762;45.420;10.072;2022-08-19T18:27:37;1.98;;;1.33;;
44572;SDS011;31762;45.420;10.072;2022-08-19T18:32:39;2.97;;;1.38;;
44572;SDS011;31762;45.420;10.072;2022-08-19T18:37:42;3.58;;;2.33;;
44572;SDS011;31762;45.420;10.072;2022-08-19T18:42:45;5.97;;;2.40;;
44572;SDS011;31762;45.420;10.072;2022-08-19T18:47:46;3.40;;;2.57;;
44572;SDS011;31762;45.420;10.072;2022-08-19T18:52:48;2.50;;;1.90;;
44572;SDS011;31762;45.420;10.072;2022-08-19T18:57:50;3.20;;;2.25;;
44572;SDS011;31762;45.420;10.072;2022-08-19T19:02:54;3.50;;;2.13;;
44572;SDS011;31762;45.420;10.072;2022-08-19T19:07:55;2.15;;;1.60;;
44572;SDS011;31762;45.420;10.072;2022-08-19T19:12:57;3.27;;;2.47;;
44572;SDS011;31762;45.420;10.072;2022-08-19T19:17:59;2.55;;;1.70;;
44572;SDS011;31762;45.420;10.072;2022-08-19T19:23:02;1.77;;;1.40;;
44572;SDS011;31762;45.420;10.072;2022-08-19T19:28:04;2.58;;;1.90;;
44572;SDS011;31762;45.420;10.072;2022-08-19T19:33:05;2.40;;;1.98;;
44572;SDS011;31762;45.420;10.072;2022-08-19T19:38:07;2.30;;;2.00;;
44572;SDS011;31762;45.420;10.072;2022-08-19T19:43:09;3.90;;;2.30;;
44572;SDS011;31762;45.420;10.072;2022-08-19T19:48:11;3.10;;;2.22;;
44572;SDS011;31762;45.420;10.072;2022-08-19T19:53:13;3.90;;;2.00;;
44572;SDS011;31762;45.420;10.072;2022-08-19T19:58:14;2.15;;;1.85;;
44572;SDS011;31762;45.420;10.072;2022-08-19T20:03:21;2.78;;;1.70;;
44572;SDS011;31762;45.420;10.072;2022-08-19T20:08:23;2.80;;;1.50;;
44572;SDS011;31762;45.420;10.072;2022-08-19T20:13:28;2.03;;;1.50;;
44572;SDS011;31762;45.420;10.072;2022-08-19T20:18:31;2.42;;;1.95;;
44572;SDS011;31762;45.420;10.072;2022-08-19T20:23:32;3.20;;;2.28;;
44572;SDS011;31762;45.420;10.072;2022-08-19T20:28:34;3.50;;;2.45;;
44572;SDS011;31762;45.420;10.072;2022-08-19T20:33:37;1.95;;;1.83;;
44572;SDS011;31762;45.420;10.072;2022-08-19T20:38:39;2.30;;;2.00;;
44572;SDS011;31762;45.420;10.072;2022-08-19T20:43:41;2.83;;;1.80;;
44572;SDS011;31762;45.420;10.072;2022-08-19T20:48:43;2.15;;;1.95;;
44572;SDS011;31762;45.420;10.072;2022-08-19T20:53:45;2.72;;;2.22;;
44572;SDS011;31762;45.420;10.072;2022-08-19T20:58:47;4.87;;;1.93;;
44572;SDS011;31762;45.420;10.072;2022-08-19T21:03:55;2.83;;;2.20;;
44572;SDS011;31762;45.420;10.072;2022-08-19T21:08:57;2.47;;;2.15;;
44572;SDS011;31762;45.420;10.072;2022-08-19T21:13:59;2.77;;;2.47;;
44572;SDS011;31762;45.420;10.072;2022-08-19T21:19:00;2.97;;;2.67;;
44572;SDS011;31762;45.420;10.072;2022-08-19T21:24:02;3.92;;;2.20;;
44572;SDS011;31762;45.420;10.072;2022-08-19T21:29:05;2.85;;;2.30;;
44572;SDS011;31762;45.420;10.072;2022-08-19T21:34:07;3.27;;;1.87;;
44572;SDS011;31762;45.420;10.072;2022-08-19T21:39:08;2.83;;;1.75;;
44572;SDS011;31762;45.420;10.072;2022-08-19T21:44:10;2.88;;;1.45;;
44572;SDS011;31762;45.420;10.072;2022-08-19T21:49:12;3.72;;;1.92;;
44572;SDS011;31762;45.420;10.072;2022-08-19T21:54:14;1.88;;;1.60;;
44572;SDS011;31762;45.420;10.072;2022-08-19T21:59:16;1.90;;;1.52;;
44572;SDS011;31762;45.420;10.072;2022-08-19T22:04:18;1.57;;;1.23;;
44572;SDS011;31762;45.420;10.072;2022-08-19T22:09:19;2.40;;;1.13;;
44572;SDS011;31762;45.420;10.072;2022-08-19T22:14:21;2.60;;;1.50;;
44572;SDS011;31762;45.420;10.072;2022-08-19T22:19:23;2.40;;;1.27;;
44572;SDS011;31762;45.420;10.072;2022-08-19T22:24:25;1.67;;;1.10;;
44572;SDS011;31762;45.420;10.072;2022-08-19T22:29:26;1.17;;;0.95;;
44572;SDS011;31762;45.420;10.072;2022-08-19T22:34:34;3.03;;;1.50;;
44572;SDS011;31762;45.420;10.072;2022-08-19T22:39:36;1.63;;;1.10;;
44572;SDS011;31762;45.420;10.072;2022-08-19T22:44:38;3.28;;;1.42;;
44572;SDS011;31762;45.420;10.072;2022-08-19T22:49:39;1.48;;;0.90;;
44572;SDS011;31762;45.420;10.072;2022-08-19T22:54:42;1.50;;;0.80;;
44572;SDS011;31762;45.420;10.072;2022-08-19T22:59:45;2.90;;;0.90;;
44572;SDS011;31762;45.420;10.072;2022-08-19T23:04:51;3.17;;;0.82;;
44572;SDS011;31762;45.420;10.072;2022-08-19T23:09:53;1.77;;;1.07;;
44572;SDS011;31762;45.420;10.072;2022-08-19T23:14:55;2.17;;;1.00;;
44572;SDS011;31762;45.420;10.072;2022-08-19T23:20:16;1.13;;;0.80;;
44572;SDS011;31762;45.420;10.072;2022-08-19T23:25:19;1.50;;;1.20;;
44572;SDS011;31762;45.420;10.072;2022-08-19T23:30:23;2.30;;;1.10;;
44572;SDS011;31762;45.420;10.072;2022-08-19T23:35:29;2.90;;;0.90;;
44572;SDS011;31762;45.420;10.072;2022-08-19T23:40:34;1.73;;;1.13;;
44572;SDS011;31762;45.420;10.072;2022-08-19T23:45:37;2.13;;;0.80;;
44572;SDS011;31762;45.420;10.072;2022-08-19T23:50:41;2.08;;;1.00;;
44572;SDS011;31762;45.420;10.072;2022-08-19T23:55:44;1.37;;;0.90;;
